SWA1079 KELP-KSAT
Flight info
| Callsign | SWA1079 |
|---|---|
| Flight time | 1h 0m |
| Altitude | 39000 |
| Route | NEVUE3 FST J138 SHUCK MOPPP DNKIN2 |
| Aircraft | B737/M-SADE2E3GIJ4RWZ/LB1D1 |
Departure
| Time | 2026-04-25 12:29 |
|---|---|
| Airport | El Paso International Airport (KELP) |
Arrival
| Time | 2026-04-25 13:30 |
|---|---|
| Airport | San Antonio International Airport (KSAT) |
| Time | Latitude | Longitude | Altitude | Speed | Heading |
|---|---|---|---|---|---|
| 2026-04-25 11:43 | 31.79983 | -106.39364 | 3946 ft | 0 kts | 334° |
| 2026-04-25 12:12 | 31.79980 | -106.39363 | 3946 ft | 3 kts | 334° |
| 2026-04-25 12:12 | 31.79948 | -106.39353 | 3946 ft | 4 kts | 8° |
| 2026-04-25 12:12 | 31.79925 | -106.39364 | 3946 ft | 4 kts | 52° |
| 2026-04-25 12:13 | 31.79918 | -106.39377 | 3946 ft | 1 kts | 75° |
| 2026-04-25 12:18 | 31.79919 | -106.39374 | 3946 ft | 2 kts | 75° |
| 2026-04-25 12:19 | 31.79936 | -106.39293 | 3946 ft | 8 kts | 75° |
| 2026-04-25 12:19 | 31.79960 | -106.39206 | 3946 ft | 8 kts | 73° |
| 2026-04-25 12:19 | 31.79984 | -106.39147 | 3946 ft | 8 kts | 68° |
| 2026-04-25 12:20 | 31.79990 | -106.39084 | 3946 ft | 8 kts | 89° |
| 2026-04-25 12:20 | 31.79990 | -106.39018 | 3946 ft | 9 kts | 89° |
| 2026-04-25 12:20 | 31.79989 | -106.38941 | 3946 ft | 10 kts | 90° |
| 2026-04-25 12:20 | 31.80001 | -106.38856 | 3946 ft | 11 kts | 61° |
| 2026-04-25 12:21 | 31.80059 | -106.38795 | 3946 ft | 11 kts | 23° |
| 2026-04-25 12:21 | 31.80138 | -106.38786 | 3945 ft | 12 kts | 3° |
| 2026-04-25 12:21 | 31.80229 | -106.38780 | 3944 ft | 14 kts | 2° |
| 2026-04-25 12:21 | 31.80325 | -106.38773 | 3945 ft | 13 kts | 4° |
| 2026-04-25 12:22 | 31.80419 | -106.38767 | 3946 ft | 13 kts | 3° |
| 2026-04-25 12:22 | 31.80507 | -106.38763 | 3946 ft | 13 kts | 357° |
| 2026-04-25 12:22 | 31.80585 | -106.38805 | 3946 ft | 12 kts | 323° |
| 2026-04-25 12:22 | 31.80657 | -106.38846 | 3946 ft | 12 kts | 18° |
| 2026-04-25 12:23 | 31.80726 | -106.38781 | 3946 ft | 14 kts | 43° |
| 2026-04-25 12:23 | 31.80804 | -106.38695 | 3946 ft | 15 kts | 43° |
| 2026-04-25 12:23 | 31.80876 | -106.38605 | 3946 ft | 15 kts | 50° |
| 2026-04-25 12:23 | 31.80940 | -106.38513 | 3946 ft | 14 kts | 50° |
| 2026-04-25 12:24 | 31.81003 | -106.38427 | 3946 ft | 14 kts | 49° |
| 2026-04-25 12:24 | 31.81063 | -106.38343 | 3946 ft | 14 kts | 50° |
| 2026-04-25 12:24 | 31.81129 | -106.38250 | 3946 ft | 16 kts | 50° |
| 2026-04-25 12:24 | 31.81206 | -106.38143 | 3946 ft | 18 kts | 50° |
| 2026-04-25 12:25 | 31.81291 | -106.38024 | 3946 ft | 20 kts | 50° |
| 2026-04-25 12:25 | 31.81381 | -106.37897 | 3946 ft | 20 kts | 49° |
| 2026-04-25 12:25 | 31.81471 | -106.37774 | 3946 ft | 19 kts | 50° |
| 2026-04-25 12:25 | 31.81556 | -106.37654 | 3946 ft | 19 kts | 51° |
| 2026-04-25 12:26 | 31.81642 | -106.37534 | 3946 ft | 20 kts | 50° |
| 2026-04-25 12:26 | 31.81732 | -106.37409 | 3946 ft | 21 kts | 51° |
| 2026-04-25 12:26 | 31.81823 | -106.37282 | 3946 ft | 20 kts | 50° |
| 2026-04-25 12:26 | 31.81911 | -106.37160 | 3945 ft | 19 kts | 50° |
| 2026-04-25 12:27 | 31.81996 | -106.37042 | 3945 ft | 17 kts | 49° |
| 2026-04-25 12:27 | 31.82047 | -106.36973 | 3945 ft | 17 kts | 49° |
| 2026-04-25 12:27 | 31.82134 | -106.36908 | 3945 ft | 11 kts | 341° |
| 2026-04-25 12:27 | 31.82174 | -106.36941 | 3946 ft | 10 kts | 322° |
| 2026-04-25 12:28 | 31.82249 | -106.37009 | 3945 ft | 10 kts | 322° |
| 2026-04-25 12:28 | 31.82244 | -106.37077 | 3945 ft | 10 kts | 227° |
| 2026-04-25 12:28 | 31.82197 | -106.37141 | 3944 ft | 30 kts | 230° |
| 2026-04-25 12:28 | 31.81906 | -106.37548 | 3947 ft | 99 kts | 230° |
| 2026-04-25 12:29 | 31.81331 | -106.38350 | 3948 ft | 155 kts | 230° |
| 2026-04-25 12:29 | 31.80572 | -106.39404 | 4261 ft | 176 kts | 229° |
| 2026-04-25 12:29 | 31.79742 | -106.40524 | 4912 ft | 184 kts | 229° |
| 2026-04-25 12:29 | 31.78948 | -106.41606 | 5745 ft | 169 kts | 230° |
| 2026-04-25 12:30 | 31.78150 | -106.42667 | 6027 ft | 178 kts | 230° |
| 2026-04-25 12:30 | 31.77325 | -106.43707 | 6470 ft | 173 kts | 230° |
| 2026-04-25 12:30 | 31.76493 | -106.44732 | 6922 ft | 179 kts | 227° |
| 2026-04-25 12:30 | 31.75300 | -106.45467 | 7226 ft | 214 kts | 192° |
| 2026-04-25 12:31 | 31.73729 | -106.45215 | 7432 ft | 250 kts | 156° |
| 2026-04-25 12:31 | 31.72369 | -106.43761 | 7649 ft | 286 kts | 121° |
| 2026-04-25 12:31 | 31.71844 | -106.41446 | 8155 ft | 304 kts | 89° |
| 2026-04-25 12:31 | 31.71969 | -106.38934 | 8955 ft | 312 kts | 84° |
| 2026-04-25 12:32 | 31.72115 | -106.36347 | 9856 ft | 320 kts | 86° |
| 2026-04-25 12:32 | 31.72186 | -106.33694 | 10659 ft | 334 kts | 89° |
| 2026-04-25 12:32 | 31.71864 | -106.30902 | 10971 ft | 357 kts | 114° |
| 2026-04-25 12:32 | 31.70800 | -106.28238 | 11797 ft | 362 kts | 120° |
| 2026-04-25 12:33 | 31.69645 | -106.25594 | 12740 ft | 366 kts | 121° |
| 2026-04-25 12:33 | 31.68488 | -106.22922 | 13691 ft | 370 kts | 121° |
| 2026-04-25 12:33 | 31.67321 | -106.20192 | 14486 ft | 378 kts | 121° |
| 2026-04-25 12:33 | 31.66065 | -106.17454 | 15328 ft | 383 kts | 123° |
| 2026-04-25 12:34 | 31.64765 | -106.14751 | 16121 ft | 389 kts | 124° |
| 2026-04-25 12:34 | 31.63420 | -106.11972 | 16927 ft | 394 kts | 123° |
| 2026-04-25 12:34 | 31.62064 | -106.09151 | 17688 ft | 400 kts | 123° |
| 2026-04-25 12:34 | 31.61141 | -106.07219 | 18186 ft | 404 kts | 123° |
| 2026-04-25 12:35 | 31.59308 | -106.03363 | 19165 ft | 411 kts | 123° |
| 2026-04-25 12:35 | 31.57900 | -106.00426 | 19922 ft | 415 kts | 124° |
| 2026-04-25 12:35 | 31.56333 | -105.97550 | 20615 ft | 419 kts | 128° |
| 2026-04-25 12:35 | 31.54659 | -105.94733 | 21278 ft | 424 kts | 129° |
| 2026-04-25 12:36 | 31.52947 | -105.91893 | 21929 ft | 429 kts | 129° |
| 2026-04-25 12:36 | 31.51228 | -105.88993 | 22574 ft | 434 kts | 128° |
| 2026-04-25 12:36 | 31.49512 | -105.86054 | 23202 ft | 439 kts | 128° |
| 2026-04-25 12:36 | 31.47855 | -105.83073 | 23787 ft | 447 kts | 121° |
| 2026-04-25 12:37 | 31.46783 | -105.79562 | 24339 ft | 458 kts | 104° |
| 2026-04-25 12:37 | 31.46137 | -105.75893 | 24937 ft | 463 kts | 102° |
| 2026-04-25 12:37 | 31.45532 | -105.72167 | 25432 ft | 469 kts | 102° |
| 2026-04-25 12:37 | 31.44937 | -105.68430 | 25893 ft | 475 kts | 102° |
| 2026-04-25 12:38 | 31.44319 | -105.64609 | 26375 ft | 481 kts | 102° |
| 2026-04-25 12:38 | 31.43678 | -105.60733 | 26861 ft | 486 kts | 102° |
| 2026-04-25 12:38 | 31.43020 | -105.56840 | 27318 ft | 490 kts | 103° |
| 2026-04-25 12:38 | 31.42344 | -105.52903 | 27748 ft | 495 kts | 103° |
| 2026-04-25 12:39 | 31.41654 | -105.48936 | 28147 ft | 500 kts | 103° |
| 2026-04-25 12:39 | 31.40951 | -105.44922 | 28559 ft | 505 kts | 103° |
| 2026-04-25 12:39 | 31.40241 | -105.40879 | 28987 ft | 509 kts | 103° |
| 2026-04-25 12:39 | 31.39527 | -105.36804 | 29370 ft | 513 kts | 103° |
| 2026-04-25 12:40 | 31.38805 | -105.32693 | 29753 ft | 517 kts | 103° |
| 2026-04-25 12:40 | 31.38078 | -105.28553 | 30126 ft | 522 kts | 103° |
| 2026-04-25 12:40 | 31.37342 | -105.24377 | 30494 ft | 526 kts | 103° |
| 2026-04-25 12:40 | 31.36611 | -105.20226 | 30900 ft | 528 kts | 103° |
| 2026-04-25 12:41 | 31.35858 | -105.15958 | 31278 ft | 531 kts | 103° |
| 2026-04-25 12:41 | 31.35116 | -105.11764 | 31637 ft | 534 kts | 103° |
| 2026-04-25 12:41 | 31.34361 | -105.07501 | 31976 ft | 536 kts | 103° |
| 2026-04-25 12:41 | 31.33600 | -105.03219 | 32315 ft | 538 kts | 103° |
| 2026-04-25 12:42 | 31.32834 | -104.98929 | 32730 ft | 538 kts | 103° |
| 2026-04-25 12:42 | 31.32327 | -104.96088 | 33032 ft | 537 kts | 103° |
| 2026-04-25 12:42 | 31.31306 | -104.90383 | 33617 ft | 536 kts | 104° |
| 2026-04-25 12:42 | 31.30543 | -104.86124 | 33961 ft | 536 kts | 104° |
| 2026-04-25 12:43 | 31.29775 | -104.81848 | 34304 ft | 536 kts | 104° |
| 2026-04-25 12:43 | 31.29006 | -104.77580 | 34678 ft | 536 kts | 103° |
| 2026-04-25 12:43 | 31.27466 | -104.69041 | 35279 ft | 538 kts | 103° |
| 2026-04-25 12:44 | 31.26690 | -104.64748 | 35527 ft | 540 kts | 103° |
| 2026-04-25 12:44 | 31.25910 | -104.60444 | 35823 ft | 541 kts | 103° |
| 2026-04-25 12:44 | 31.24348 | -104.51863 | 36443 ft | 541 kts | 103° |
| 2026-04-25 12:45 | 31.23561 | -104.47550 | 36664 ft | 543 kts | 103° |
| 2026-04-25 12:45 | 31.22771 | -104.43239 | 36944 ft | 542 kts | 103° |
| 2026-04-25 12:45 | 31.21203 | -104.34690 | 37558 ft | 540 kts | 103° |
| 2026-04-25 12:46 | 31.20415 | -104.30405 | 37841 ft | 539 kts | 103° |
| 2026-04-25 12:46 | 31.19626 | -104.26126 | 38115 ft | 538 kts | 103° |
| 2026-04-25 12:46 | 31.18837 | -104.21851 | 38389 ft | 538 kts | 103° |
| 2026-04-25 12:46 | 31.18046 | -104.17579 | 38654 ft | 537 kts | 103° |
| 2026-04-25 12:47 | 31.17255 | -104.13312 | 38912 ft | 537 kts | 103° |
| 2026-04-25 12:47 | 31.16468 | -104.09078 | 38955 ft | 542 kts | 103° |
| 2026-04-25 12:47 | 31.14861 | -104.00457 | 38948 ft | 543 kts | 103° |
| 2026-04-25 12:48 | 31.13257 | -103.91883 | 38928 ft | 536 kts | 103° |
| 2026-04-25 12:48 | 31.11666 | -103.83399 | 38940 ft | 534 kts | 103° |
| 2026-04-25 12:49 | 31.10068 | -103.74923 | 38925 ft | 534 kts | 103° |
| 2026-04-25 12:49 | 31.08465 | -103.66453 | 38932 ft | 534 kts | 103° |
| 2026-04-25 12:50 | 31.06869 | -103.58044 | 38900 ft | 534 kts | 103° |
| 2026-04-25 12:50 | 31.05255 | -103.49579 | 38901 ft | 534 kts | 103° |
| 2026-04-25 12:51 | 31.03627 | -103.41068 | 38902 ft | 534 kts | 103° |
| 2026-04-25 12:51 | 31.02012 | -103.32662 | 38900 ft | 534 kts | 103° |
| 2026-04-25 12:52 | 31.00382 | -103.24203 | 38897 ft | 535 kts | 103° |
| 2026-04-25 12:52 | 30.98745 | -103.15742 | 38892 ft | 535 kts | 103° |
| 2026-04-25 12:53 | 30.97098 | -103.07258 | 38891 ft | 536 kts | 103° |
| 2026-04-25 12:53 | 30.95450 | -102.98795 | 38879 ft | 536 kts | 103° |
| 2026-04-25 12:54 | 30.93536 | -102.90402 | 38890 ft | 536 kts | 108° |
| 2026-04-25 12:54 | 30.91322 | -102.82111 | 38877 ft | 535 kts | 109° |
| 2026-04-25 12:55 | 30.89474 | -102.75238 | 38878 ft | 535 kts | 108° |
| 2026-04-25 12:55 | 30.86932 | -102.65551 | 38881 ft | 535 kts | 108° |
| 2026-04-25 12:56 | 30.84799 | -102.57316 | 38890 ft | 534 kts | 108° |
| 2026-04-25 12:56 | 30.82647 | -102.49044 | 38893 ft | 534 kts | 108° |
| 2026-04-25 12:57 | 30.80488 | -102.40780 | 38890 ft | 534 kts | 108° |
| 2026-04-25 12:57 | 30.78321 | -102.32519 | 38886 ft | 534 kts | 108° |
| 2026-04-25 12:58 | 30.76150 | -102.24267 | 38891 ft | 533 kts | 108° |
| 2026-04-25 12:58 | 30.73987 | -102.16059 | 38889 ft | 533 kts | 108° |
| 2026-04-25 12:59 | 30.71811 | -102.07824 | 38885 ft | 533 kts | 108° |
| 2026-04-25 12:59 | 30.69627 | -101.99585 | 38874 ft | 533 kts | 108° |
| 2026-04-25 13:00 | 30.68161 | -101.94072 | 38881 ft | 533 kts | 108° |
| 2026-04-25 13:00 | 30.65243 | -101.83129 | 38881 ft | 533 kts | 108° |
| 2026-04-25 13:01 | 30.63041 | -101.74899 | 38879 ft | 533 kts | 108° |
| 2026-04-25 13:01 | 30.60841 | -101.66691 | 38877 ft | 533 kts | 108° |
| 2026-04-25 13:02 | 30.58633 | -101.58479 | 38878 ft | 533 kts | 108° |
| 2026-04-25 13:02 | 30.56432 | -101.50313 | 38885 ft | 533 kts | 108° |
| 2026-04-25 13:03 | 30.54214 | -101.42112 | 38883 ft | 533 kts | 108° |
| 2026-04-25 13:03 | 30.51987 | -101.33895 | 38877 ft | 533 kts | 108° |
| 2026-04-25 13:04 | 30.49780 | -101.25683 | 38882 ft | 533 kts | 107° |
| 2026-04-25 13:04 | 30.47696 | -101.17438 | 38880 ft | 533 kts | 106° |
| 2026-04-25 13:05 | 30.45636 | -101.09178 | 38891 ft | 533 kts | 106° |
| 2026-04-25 13:05 | 30.43559 | -101.00947 | 38898 ft | 532 kts | 106° |
| 2026-04-25 13:06 | 30.41465 | -100.92723 | 38899 ft | 532 kts | 107° |
| 2026-04-25 13:06 | 30.39364 | -100.84510 | 38895 ft | 532 kts | 107° |
| 2026-04-25 13:07 | 30.37269 | -100.76341 | 38901 ft | 532 kts | 107° |
| 2026-04-25 13:07 | 30.35159 | -100.68127 | 38557 ft | 537 kts | 106° |
| 2026-04-25 13:08 | 30.34084 | -100.63953 | 37873 ft | 539 kts | 107° |
| 2026-04-25 13:08 | 30.33012 | -100.59798 | 37233 ft | 539 kts | 107° |
| 2026-04-25 13:08 | 30.31936 | -100.55637 | 36583 ft | 537 kts | 107° |
| 2026-04-25 13:08 | 30.30865 | -100.51500 | 35915 ft | 536 kts | 107° |
| 2026-04-25 13:09 | 30.29798 | -100.47383 | 35181 ft | 536 kts | 107° |
| 2026-04-25 13:09 | 30.28725 | -100.43248 | 34402 ft | 536 kts | 107° |
| 2026-04-25 13:09 | 30.27651 | -100.39110 | 33598 ft | 537 kts | 107° |
| 2026-04-25 13:09 | 30.26576 | -100.34970 | 32758 ft | 538 kts | 107° |
| 2026-04-25 13:10 | 30.25496 | -100.30824 | 31874 ft | 539 kts | 107° |
| 2026-04-25 13:10 | 30.24414 | -100.26681 | 31039 ft | 538 kts | 108° |
| 2026-04-25 13:10 | 30.23336 | -100.22560 | 30407 ft | 533 kts | 108° |
| 2026-04-25 13:10 | 30.22278 | -100.18519 | 29763 ft | 529 kts | 108° |
| 2026-04-25 13:11 | 30.21222 | -100.14483 | 29115 ft | 524 kts | 108° |
| 2026-04-25 13:11 | 30.20167 | -100.10460 | 28451 ft | 518 kts | 108° |
| 2026-04-25 13:11 | 30.19127 | -100.06497 | 27785 ft | 512 kts | 108° |
| 2026-04-25 13:11 | 30.18096 | -100.02577 | 27129 ft | 507 kts | 108° |
| 2026-04-25 13:12 | 30.17046 | -99.98719 | 26610 ft | 498 kts | 110° |
| 2026-04-25 13:12 | 30.15917 | -99.95005 | 26377 ft | 483 kts | 111° |
| 2026-04-25 13:12 | 30.14755 | -99.91392 | 25877 ft | 477 kts | 112° |
| 2026-04-25 13:12 | 30.14360 | -99.90181 | 25649 ft | 476 kts | 112° |
| 2026-04-25 13:13 | 30.12427 | -99.84281 | 24606 ft | 469 kts | 112° |
| 2026-04-25 13:13 | 30.11287 | -99.80769 | 23957 ft | 464 kts | 111° |
| 2026-04-25 13:13 | 30.10168 | -99.77291 | 23313 ft | 459 kts | 111° |
| 2026-04-25 13:13 | 30.09066 | -99.73847 | 22660 ft | 455 kts | 111° |
| 2026-04-25 13:14 | 30.07979 | -99.70440 | 22005 ft | 450 kts | 111° |
| 2026-04-25 13:14 | 30.06904 | -99.67063 | 21350 ft | 445 kts | 111° |
| 2026-04-25 13:14 | 30.05841 | -99.63731 | 20702 ft | 440 kts | 111° |
| 2026-04-25 13:14 | 30.04785 | -99.60432 | 20056 ft | 436 kts | 111° |
| 2026-04-25 13:15 | 30.03742 | -99.57177 | 19423 ft | 430 kts | 111° |
| 2026-04-25 13:15 | 30.02722 | -99.53995 | 18791 ft | 426 kts | 111° |
| 2026-04-25 13:15 | 30.01698 | -99.50804 | 18158 ft | 421 kts | 111° |
| 2026-04-25 13:15 | 30.00687 | -99.47656 | 17535 ft | 416 kts | 111° |
| 2026-04-25 13:16 | 29.99690 | -99.44557 | 16916 ft | 411 kts | 111° |
| 2026-04-25 13:16 | 29.98699 | -99.41479 | 16302 ft | 406 kts | 111° |
| 2026-04-25 13:16 | 29.98040 | -99.39432 | 15973 ft | 400 kts | 111° |
| 2026-04-25 13:16 | 29.97106 | -99.36534 | 15801 ft | 378 kts | 110° |
| 2026-04-25 13:17 | 29.96191 | -99.33694 | 15001 ft | 382 kts | 110° |
| 2026-04-25 13:17 | 29.95267 | -99.30831 | 14350 ft | 380 kts | 110° |
| 2026-04-25 13:17 | 29.94347 | -99.27982 | 13753 ft | 378 kts | 110° |
| 2026-04-25 13:17 | 29.93434 | -99.25157 | 13159 ft | 374 kts | 110° |
| 2026-04-25 13:18 | 29.92527 | -99.22354 | 12581 ft | 371 kts | 110° |
| 2026-04-25 13:18 | 29.91608 | -99.19617 | 12202 ft | 362 kts | 112° |
| 2026-04-25 13:18 | 29.90635 | -99.16962 | 11666 ft | 358 kts | 112° |
| 2026-04-25 13:18 | 29.89651 | -99.14341 | 11121 ft | 354 kts | 112° |
| 2026-04-25 13:19 | 29.88683 | -99.11744 | 10544 ft | 352 kts | 112° |
| 2026-04-25 13:19 | 29.87741 | -99.09194 | 10387 ft | 337 kts | 112° |
| 2026-04-25 13:19 | 29.86843 | -99.06754 | 10223 ft | 324 kts | 112° |
| 2026-04-25 13:19 | 29.86271 | -99.05196 | 10127 ft | 315 kts | 112° |
| 2026-04-25 13:20 | 29.85161 | -99.02173 | 10012 ft | 297 kts | 112° |
| 2026-04-25 13:20 | 29.84357 | -98.99987 | 9514 ft | 299 kts | 113° |
| 2026-04-25 13:20 | 29.83551 | -98.97799 | 9131 ft | 296 kts | 113° |
| 2026-04-25 13:20 | 29.82719 | -98.95642 | 8728 ft | 295 kts | 115° |
| 2026-04-25 13:21 | 29.81831 | -98.93522 | 8335 ft | 292 kts | 116° |
| 2026-04-25 13:21 | 29.80949 | -98.91451 | 7946 ft | 290 kts | 116° |
| 2026-04-25 13:21 | 29.80068 | -98.89370 | 7557 ft | 288 kts | 116° |
| 2026-04-25 13:21 | 29.79206 | -98.87324 | 7378 ft | 278 kts | 117° |
| 2026-04-25 13:22 | 29.78385 | -98.85361 | 7232 ft | 268 kts | 117° |
| 2026-04-25 13:22 | 29.77586 | -98.83457 | 7108 ft | 258 kts | 117° |
| 2026-04-25 13:22 | 29.76819 | -98.81631 | 6978 ft | 249 kts | 117° |
| 2026-04-25 13:23 | 29.75351 | -98.78124 | 6577 ft | 237 kts | 117° |
| 2026-04-25 13:23 | 29.74640 | -98.76434 | 6388 ft | 233 kts | 117° |
| 2026-04-25 13:23 | 29.73935 | -98.74752 | 6210 ft | 234 kts | 117° |
| 2026-04-25 13:23 | 29.73215 | -98.73071 | 6002 ft | 235 kts | 122° |
| 2026-04-25 13:24 | 29.72214 | -98.71573 | 5724 ft | 237 kts | 133° |
| 2026-04-25 13:24 | 29.71110 | -98.70186 | 5452 ft | 235 kts | 134° |
| 2026-04-25 13:24 | 29.70012 | -98.68807 | 5170 ft | 234 kts | 134° |
| 2026-04-25 13:24 | 29.68918 | -98.67425 | 4894 ft | 232 kts | 134° |
| 2026-04-25 13:25 | 29.67836 | -98.66045 | 4617 ft | 233 kts | 134° |
| 2026-04-25 13:25 | 29.66759 | -98.64658 | 4337 ft | 232 kts | 133° |
| 2026-04-25 13:25 | 29.65691 | -98.63278 | 4062 ft | 230 kts | 133° |
| 2026-04-25 13:25 | 29.64636 | -98.61933 | 3828 ft | 222 kts | 134° |
| 2026-04-25 13:26 | 29.63616 | -98.60632 | 3542 ft | 217 kts | 134° |
| 2026-04-25 13:26 | 29.62637 | -98.59367 | 3255 ft | 205 kts | 134° |
| 2026-04-25 13:26 | 29.61722 | -98.58184 | 3007 ft | 191 kts | 134° |
| 2026-04-25 13:26 | 29.60870 | -98.57083 | 2763 ft | 177 kts | 134° |
| 2026-04-25 13:27 | 29.60082 | -98.56063 | 2567 ft | 161 kts | 134° |
| 2026-04-25 13:27 | 29.59377 | -98.55154 | 2319 ft | 145 kts | 132° |
| 2026-04-25 13:27 | 29.58729 | -98.54316 | 2139 ft | 137 kts | 133° |
| 2026-04-25 13:27 | 29.58103 | -98.53506 | 1980 ft | 139 kts | 133° |
| 2026-04-25 13:28 | 29.57456 | -98.52670 | 1781 ft | 139 kts | 133° |
| 2026-04-25 13:28 | 29.57027 | -98.52109 | 1645 ft | 139 kts | 133° |
| 2026-04-25 13:28 | 29.56142 | -98.51007 | 1296 ft | 143 kts | 133° |
| 2026-04-25 13:28 | 29.55496 | -98.50144 | 1103 ft | 143 kts | 131° |
| 2026-04-25 13:29 | 29.54843 | -98.49283 | 943 ft | 143 kts | 132° |
| 2026-04-25 13:29 | 29.54184 | -98.48437 | 804 ft | 142 kts | 131° |
| 2026-04-25 13:29 | 29.53605 | -98.47691 | 797 ft | 98 kts | 132° |
| 2026-04-25 13:30 | 29.53187 | -98.47154 | 797 ft | 21 kts | 130° |
| 2026-04-25 13:30 | 29.53078 | -98.47065 | 797 ft | 19 kts | 183° |
| 2026-04-25 13:30 | 29.53028 | -98.47099 | 797 ft | 0 kts | 220° |
| 2026-04-25 13:31 | 29.53023 | -98.47101 | 797 ft | 2 kts | 206° |
| 2026-04-25 13:31 | 29.53001 | -98.47097 | 797 ft | 5 kts | 156° |
| 2026-04-25 13:32 | 29.52966 | -98.47059 | 797 ft | 9 kts | 133° |
| 2026-04-25 13:32 | 29.52914 | -98.46993 | 797 ft | 13 kts | 131° |
| 2026-04-25 13:32 | 29.52865 | -98.46930 | 797 ft | 0 kts | 131° |
| 2026-04-25 13:32 | 29.52858 | -98.46922 | 797 ft | 2 kts | 131° |
| 2026-04-25 13:33 | 29.52826 | -98.46906 | 797 ft | 7 kts | 186° |
| 2026-04-25 13:33 | 29.52776 | -98.46908 | 797 ft | 9 kts | 153° |
| 2026-04-25 13:33 | 29.52715 | -98.46874 | 797 ft | 11 kts | 195° |
| 2026-04-25 13:33 | 29.52674 | -98.46907 | 797 ft | 8 kts | 222° |
| 2026-04-25 13:34 | 29.52667 | -98.46942 | 797 ft | 4 kts | 300° |
| 2026-04-25 13:34 | 29.52685 | -98.46967 | 797 ft | 5 kts | 311° |
| 2026-04-25 13:34 | 29.52697 | -98.46982 | 797 ft | 0 kts | 310° |
| 2026-04-25 13:34 | 29.52700 | -98.46986 | 797 ft | 2 kts | 310° |
| 2026-04-25 13:35 | 29.52703 | -98.46990 | 797 ft | 0 kts | 310° |